OIAI  Shahid Asyaee Airport

Add Bookmark

Iran

Status
Operational
Latitude Longitude
32° 0' 8" N 49° 16' 13" E
32.002399 49.270401
Local (DST + 5) UTC (GMT + 4)
Oct 2, 2014 01:48 Oct 1, 2014 22:18
Sunrise-Sunset Local UTC
Begin Civil Twilight 05:41 02:11
Sunrise 06:06 02:36
Sunset 05:58 14:28
End Civil Twilight 06:22 14:52

Current Weather

METAR Observed VFR
OIAI 012000Z 16004KT CAVOK 31/09 Q1011 Wed, Oct 1, 2014 @ 20:00 UTC
(2 Hours, 18 Minutes ago)
Visual Flight Rules
Wind Visibility Clouds Conditions
160° at 4 knots (7 kph) 10 km or more
  • Clear skies
  • No significant weather
Temperatures Readings Precipitation
Current Temp 31°C (88°F)
Dewpoint 9°C (48°F)
Humidity 25%
Altimeter 29.85"Hg
Sea Level Pressure 1011mb
Field Elevation 1220.47'
None Recorded

Additional weather within a 92.6km radius of OIAI

Map ICAO Location
OIAW 88.2km S (213°)

24 Hour Weather History

Loading
-

24 Hour Weather Graphs

Loading
-

CheckWX.com is intended as a tool to help pilots better visualize weather data. It is not intended as a substitute for an official weather briefing obtained from a Flight Service Station. CheckWX.com does not meet the FAA requirements for an official pre-flight weather briefing. Therefore, it's important that pilots still call and obtain an official FSS pre-flight weather briefing.